sensor_id;sensor_type;location;lat;lon;timestamp;temperature;humidity
8475;DHT22;4274;52.012;8.448;2023-04-08T00:00:14;3.60;99.90
8475;DHT22;4274;52.012;8.448;2023-04-08T00:02:39;3.60;99.90
8475;DHT22;4274;52.012;8.448;2023-04-08T00:05:06;3.50;99.90
8475;DHT22;4274;52.012;8.448;2023-04-08T00:07:32;3.40;99.90
8475;DHT22;4274;52.012;8.448;2023-04-08T00:09:58;3.40;99.90
8475;DHT22;4274;52.012;8.448;2023-04-08T00:12:23;3.40;99.90
8475;DHT22;4274;52.012;8.448;2023-04-08T00:14:49;3.40;99.90
8475;DHT22;4274;52.012;8.448;2023-04-08T00:17:14;3.40;99.90
8475;DHT22;4274;52.012;8.448;2023-04-08T00:19:41;3.40;99.90
8475;DHT22;4274;52.012;8.448;2023-04-08T00:22:06;3.40;99.90
8475;DHT22;4274;52.012;8.448;2023-04-08T00:24:32;3.40;99.90
8475;DHT22;4274;52.012;8.448;2023-04-08T00:26:58;3.40;99.90
8475;DHT22;4274;52.012;8.448;2023-04-08T00:29:23;3.50;99.90
8475;DHT22;4274;52.012;8.448;2023-04-08T00:31:49;3.50;99.90
8475;DHT22;4274;52.012;8.448;2023-04-08T00:34:15;3.60;99.90
8475;DHT22;4274;52.012;8.448;2023-04-08T00:36:41;3.70;99.90
8475;DHT22;4274;52.012;8.448;2023-04-08T00:39:07;3.80;99.90
8475;DHT22;4274;52.012;8.448;2023-04-08T00:41:33;3.80;99.90
8475;DHT22;4274;52.012;8.448;2023-04-08T00:44:00;3.90;99.90
8475;DHT22;4274;52.012;8.448;2023-04-08T00:46:25;3.90;99.90
8475;DHT22;4274;52.012;8.448;2023-04-08T00:48:51;3.90;99.90
8475;DHT22;4274;52.012;8.448;2023-04-08T00:51:18;4.00;99.90
8475;DHT22;4274;52.012;8.448;2023-04-08T00:53:44;4.00;99.90
8475;DHT22;4274;52.012;8.448;2023-04-08T00:56:09;4.10;99.90
8475;DHT22;4274;52.012;8.448;2023-04-08T00:58:35;4.10;99.90
8475;DHT22;4274;52.012;8.448;2023-04-08T01:01:13;4.10;99.90
8475;DHT22;4274;52.012;8.448;2023-04-08T01:07:04;4.20;99.90
8475;DHT22;4274;52.012;8.448;2023-04-08T01:09:34;4.20;99.90
8475;DHT22;4274;52.012;8.448;2023-04-08T01:12:05;4.30;99.90
8475;DHT22;4274;52.012;8.448;2023-04-08T01:14:34;4.30;99.90
8475;DHT22;4274;52.012;8.448;2023-04-08T01:17:03;4.30;99.90
8475;DHT22;4274;52.012;8.448;2023-04-08T01:19:32;4.30;99.90
8475;DHT22;4274;52.012;8.448;2023-04-08T01:24:43;4.40;99.90
8475;DHT22;4274;52.012;8.448;2023-04-08T01:27:10;4.40;99.90
8475;DHT22;4274;52.012;8.448;2023-04-08T01:29:36;4.50;99.90
8475;DHT22;4274;52.012;8.448;2023-04-08T01:32:03;4.50;99.90
8475;DHT22;4274;52.012;8.448;2023-04-08T01:34:30;4.60;99.90
8475;DHT22;4274;52.012;8.448;2023-04-08T01:36:57;4.60;99.90
8475;DHT22;4274;52.012;8.448;2023-04-08T01:39:24;4.70;99.90
8475;DHT22;4274;52.012;8.448;2023-04-08T01:41:52;4.70;99.90
8475;DHT22;4274;52.012;8.448;2023-04-08T01:44:20;4.70;99.90
8475;DHT22;4274;52.012;8.448;2023-04-08T01:46:46;4.70;99.90
8475;DHT22;4274;52.012;8.448;2023-04-08T01:49:12;4.80;99.90
8475;DHT22;4274;52.012;8.448;2023-04-08T01:51:40;4.80;99.90
8475;DHT22;4274;52.012;8.448;2023-04-08T01:54:05;4.90;99.90
8475;DHT22;4274;52.012;8.448;2023-04-08T01:56:36;4.90;99.90
8475;DHT22;4274;52.012;8.448;2023-04-08T01:59:08;4.90;99.90
8475;DHT22;4274;52.012;8.448;2023-04-08T02:01:35;4.90;99.90
8475;DHT22;4274;52.012;8.448;2023-04-08T02:04:02;5.00;99.90
8475;DHT22;4274;52.012;8.448;2023-04-08T02:06:29;5.00;99.90
8475;DHT22;4274;52.012;8.448;2023-04-08T02:08:56;5.00;99.90
8475;DHT22;4274;52.012;8.448;2023-04-08T02:11:23;5.00;99.90
8475;DHT22;4274;52.012;8.448;2023-04-08T02:13:50;5.10;99.90
8475;DHT22;4274;52.012;8.448;2023-04-08T02:17:08;5.10;99.90
8475;DHT22;4274;52.012;8.448;2023-04-08T02:19:19;5.20;99.90
8475;DHT22;4274;52.012;8.448;2023-04-08T02:21:49;5.10;99.90
8475;DHT22;4274;52.012;8.448;2023-04-08T02:24:17;5.20;99.90
8475;DHT22;4274;52.012;8.448;2023-04-08T02:26:43;5.20;99.90
8475;DHT22;4274;52.012;8.448;2023-04-08T02:29:13;5.20;99.90
8475;DHT22;4274;52.012;8.448;2023-04-08T02:31:40;5.20;99.90
8475;DHT22;4274;52.012;8.448;2023-04-08T02:34:08;5.30;99.90
8475;DHT22;4274;52.012;8.448;2023-04-08T02:36:35;5.30;99.90
8475;DHT22;4274;52.012;8.448;2023-04-08T02:39:02;5.30;99.90
8475;DHT22;4274;52.012;8.448;2023-04-08T02:41:28;5.20;99.90
8475;DHT22;4274;52.012;8.448;2023-04-08T02:43:54;5.20;99.90
8475;DHT22;4274;52.012;8.448;2023-04-08T02:46:20;5.30;99.90
8475;DHT22;4274;52.012;8.448;2023-04-08T02:48:46;5.30;99.90
8475;DHT22;4274;52.012;8.448;2023-04-08T02:51:11;5.30;99.90
8475;DHT22;4274;52.012;8.448;2023-04-08T02:53:37;5.30;99.90
8475;DHT22;4274;52.012;8.448;2023-04-08T02:56:02;5.30;99.90
8475;DHT22;4274;52.012;8.448;2023-04-08T02:58:28;5.30;99.90
8475;DHT22;4274;52.012;8.448;2023-04-08T03:00:54;5.30;99.90
8475;DHT22;4274;52.012;8.448;2023-04-08T03:03:19;5.30;99.90
8475;DHT22;4274;52.012;8.448;2023-04-08T03:05:52;5.30;99.90
8475;DHT22;4274;52.012;8.448;2023-04-08T03:08:18;5.30;99.90
8475;DHT22;4274;52.012;8.448;2023-04-08T03:10:43;5.20;99.90
8475;DHT22;4274;52.012;8.448;2023-04-08T03:13:09;5.20;99.90
8475;DHT22;4274;52.012;8.448;2023-04-08T03:15:35;5.20;99.90
8475;DHT22;4274;52.012;8.448;2023-04-08T03:18:00;5.20;99.90
8475;DHT22;4274;52.012;8.448;2023-04-08T03:20:26;5.20;99.90
8475;DHT22;4274;52.012;8.448;2023-04-08T03:22:51;5.20;99.90
8475;DHT22;4274;52.012;8.448;2023-04-08T03:25:17;5.10;99.90
8475;DHT22;4274;52.012;8.448;2023-04-08T03:27:43;5.20;99.90
8475;DHT22;4274;52.012;8.448;2023-04-08T03:30:08;5.20;99.90
8475;DHT22;4274;52.012;8.448;2023-04-08T03:32:34;5.20;99.90
8475;DHT22;4274;52.012;8.448;2023-04-08T03:35:00;5.20;99.90
8475;DHT22;4274;52.012;8.448;2023-04-08T03:37:26;5.20;99.90
8475;DHT22;4274;52.012;8.448;2023-04-08T03:39:53;5.20;99.90
8475;DHT22;4274;52.012;8.448;2023-04-08T03:42:19;5.20;99.90
8475;DHT22;4274;52.012;8.448;2023-04-08T03:44:44;5.20;99.90
8475;DHT22;4274;52.012;8.448;2023-04-08T03:47:10;5.20;99.90
8475;DHT22;4274;52.012;8.448;2023-04-08T03:49:36;5.20;99.90
8475;DHT22;4274;52.012;8.448;2023-04-08T03:52:01;5.20;99.90
8475;DHT22;4274;52.012;8.448;2023-04-08T03:54:27;5.20;99.90
8475;DHT22;4274;52.012;8.448;2023-04-08T03:56:52;5.20;99.90
8475;DHT22;4274;52.012;8.448;2023-04-08T03:59:18;5.20;99.90
8475;DHT22;4274;52.012;8.448;2023-04-08T04:01:43;5.20;99.90
8475;DHT22;4274;52.012;8.448;2023-04-08T04:04:09;5.20;99.90
8475;DHT22;4274;52.012;8.448;2023-04-08T04:06:35;5.10;99.90
8475;DHT22;4274;52.012;8.448;2023-04-08T04:09:00;5.20;99.90
8475;DHT22;4274;52.012;8.448;2023-04-08T04:11:26;5.20;99.90
8475;DHT22;4274;52.012;8.448;2023-04-08T04:13:51;5.20;99.90
8475;DHT22;4274;52.012;8.448;2023-04-08T04:16:17;5.20;99.90
8475;DHT22;4274;52.012;8.448;2023-04-08T04:18:43;5.30;99.90
8475;DHT22;4274;52.012;8.448;2023-04-08T04:21:08;5.30;99.90
8475;DHT22;4274;52.012;8.448;2023-04-08T04:23:34;5.30;99.90
8475;DHT22;4274;52.012;8.448;2023-04-08T04:26:00;5.30;99.90
8475;DHT22;4274;52.012;8.448;2023-04-08T04:28:25;5.30;99.90
8475;DHT22;4274;52.012;8.448;2023-04-08T04:30:51;5.30;99.90
8475;DHT22;4274;52.012;8.448;2023-04-08T04:33:16;5.30;99.90
8475;DHT22;4274;52.012;8.448;2023-04-08T04:35:42;5.30;99.90
8475;DHT22;4274;52.012;8.448;2023-04-08T04:38:08;5.30;99.90
8475;DHT22;4274;52.012;8.448;2023-04-08T04:40:37;5.30;99.90
8475;DHT22;4274;52.012;8.448;2023-04-08T04:43:03;5.30;99.90
8475;DHT22;4274;52.012;8.448;2023-04-08T04:45:29;5.30;99.90
8475;DHT22;4274;52.012;8.448;2023-04-08T04:47:54;5.20;99.90
8475;DHT22;4274;52.012;8.448;2023-04-08T04:50:20;5.30;99.90
8475;DHT22;4274;52.012;8.448;2023-04-08T04:52:45;5.30;99.90
8475;DHT22;4274;52.012;8.448;2023-04-08T04:55:11;5.30;99.90
8475;DHT22;4274;52.012;8.448;2023-04-08T04:57:38;5.30;99.90
8475;DHT22;4274;52.012;8.448;2023-04-08T05:00:04;5.30;99.90
8475;DHT22;4274;52.012;8.448;2023-04-08T05:02:30;5.30;99.90
8475;DHT22;4274;52.012;8.448;2023-04-08T05:04:56;5.30;99.90
8475;DHT22;4274;52.012;8.448;2023-04-08T05:07:21;5.40;99.90
8475;DHT22;4274;52.012;8.448;2023-04-08T05:09:47;5.40;99.90
8475;DHT22;4274;52.012;8.448;2023-04-08T05:12:13;5.40;99.90
8475;DHT22;4274;52.012;8.448;2023-04-08T05:14:38;5.40;99.90
8475;DHT22;4274;52.012;8.448;2023-04-08T05:17:05;5.40;99.90
8475;DHT22;4274;52.012;8.448;2023-04-08T05:19:31;5.40;99.90
8475;DHT22;4274;52.012;8.448;2023-04-08T05:21:56;5.40;99.90
8475;DHT22;4274;52.012;8.448;2023-04-08T05:24:22;5.40;99.90
8475;DHT22;4274;52.012;8.448;2023-04-08T05:26:47;5.40;99.90
8475;DHT22;4274;52.012;8.448;2023-04-08T05:29:16;5.40;99.90
8475;DHT22;4274;52.012;8.448;2023-04-08T05:31:43;5.40;99.90
8475;DHT22;4274;52.012;8.448;2023-04-08T05:34:09;5.40;99.90
8475;DHT22;4274;52.012;8.448;2023-04-08T05:36:35;5.40;99.90
8475;DHT22;4274;52.012;8.448;2023-04-08T05:39:01;5.40;99.90
8475;DHT22;4274;52.012;8.448;2023-04-08T05:41:26;5.40;99.90
8475;DHT22;4274;52.012;8.448;2023-04-08T05:43:52;5.40;99.90
8475;DHT22;4274;52.012;8.448;2023-04-08T05:46:18;5.40;99.90
8475;DHT22;4274;52.012;8.448;2023-04-08T05:48:43;5.40;99.90
8475;DHT22;4274;52.012;8.448;2023-04-08T05:51:15;5.40;99.90
8475;DHT22;4274;52.012;8.448;2023-04-08T05:53:44;5.50;99.90
8475;DHT22;4274;52.012;8.448;2023-04-08T05:56:09;5.50;99.90
8475;DHT22;4274;52.012;8.448;2023-04-08T05:58:35;5.50;99.90
8475;DHT22;4274;52.012;8.448;2023-04-08T06:01:00;5.50;99.90
8475;DHT22;4274;52.012;8.448;2023-04-08T06:03:26;5.50;99.90
8475;DHT22;4274;52.012;8.448;2023-04-08T06:05:51;5.50;99.90
8475;DHT22;4274;52.012;8.448;2023-04-08T06:08:17;5.50;99.90
8475;DHT22;4274;52.012;8.448;2023-04-08T06:10:50;5.50;99.90
8475;DHT22;4274;52.012;8.448;2023-04-08T06:13:15;5.60;99.90
8475;DHT22;4274;52.012;8.448;2023-04-08T06:15:41;5.60;99.90
8475;DHT22;4274;52.012;8.448;2023-04-08T06:18:07;5.50;99.90
8475;DHT22;4274;52.012;8.448;2023-04-08T06:20:34;5.50;99.90
8475;DHT22;4274;52.012;8.448;2023-04-08T06:22:59;5.50;99.90
8475;DHT22;4274;52.012;8.448;2023-04-08T06:25:25;5.60;99.90
8475;DHT22;4274;52.012;8.448;2023-04-08T06:27:51;5.60;99.90
8475;DHT22;4274;52.012;8.448;2023-04-08T06:30:17;5.60;99.90
8475;DHT22;4274;52.012;8.448;2023-04-08T06:32:42;5.60;99.90
8475;DHT22;4274;52.012;8.448;2023-04-08T06:35:11;5.60;99.90
8475;DHT22;4274;52.012;8.448;2023-04-08T06:37:37;5.60;99.90
8475;DHT22;4274;52.012;8.448;2023-04-08T06:40:03;5.60;99.90
8475;DHT22;4274;52.012;8.448;2023-04-08T06:42:29;5.70;99.90
8475;DHT22;4274;52.012;8.448;2023-04-08T06:44:55;5.70;99.90
8475;DHT22;4274;52.012;8.448;2023-04-08T06:47:20;5.70;99.90
8475;DHT22;4274;52.012;8.448;2023-04-08T06:49:46;5.70;99.90
8475;DHT22;4274;52.012;8.448;2023-04-08T06:52:12;5.70;99.90
8475;DHT22;4274;52.012;8.448;2023-04-08T06:54:38;5.70;99.90
8475;DHT22;4274;52.012;8.448;2023-04-08T06:57:03;5.80;99.90
8475;DHT22;4274;52.012;8.448;2023-04-08T06:59:29;5.80;99.90
8475;DHT22;4274;52.012;8.448;2023-04-08T07:01:54;5.80;99.90
8475;DHT22;4274;52.012;8.448;2023-04-08T07:04:20;5.80;99.90
8475;DHT22;4274;52.012;8.448;2023-04-08T07:06:46;5.80;99.90
8475;DHT22;4274;52.012;8.448;2023-04-08T07:09:11;5.90;99.90
8475;DHT22;4274;52.012;8.448;2023-04-08T07:11:37;6.00;99.90
8475;DHT22;4274;52.012;8.448;2023-04-08T07:14:02;6.00;99.90
8475;DHT22;4274;52.012;8.448;2023-04-08T07:16:28;6.00;99.90
8475;DHT22;4274;52.012;8.448;2023-04-08T07:18:53;6.00;99.90
8475;DHT22;4274;52.012;8.448;2023-04-08T07:21:19;6.10;99.90
8475;DHT22;4274;52.012;8.448;2023-04-08T07:23:44;6.20;99.90
8475;DHT22;4274;52.012;8.448;2023-04-08T07:26:10;6.50;99.90
8475;DHT22;4274;52.012;8.448;2023-04-08T07:28:35;6.70;99.90
8475;DHT22;4274;52.012;8.448;2023-04-08T07:31:15;6.90;99.90
8475;DHT22;4274;52.012;8.448;2023-04-08T07:33:41;7.10;99.90
8475;DHT22;4274;52.012;8.448;2023-04-08T07:36:11;7.20;99.90
8475;DHT22;4274;52.012;8.448;2023-04-08T07:38:38;7.30;99.90
8475;DHT22;4274;52.012;8.448;2023-04-08T07:41:03;7.40;99.90
8475;DHT22;4274;52.012;8.448;2023-04-08T07:43:32;7.50;99.90
8475;DHT22;4274;52.012;8.448;2023-04-08T07:46:04;7.70;99.90
8475;DHT22;4274;52.012;8.448;2023-04-08T07:48:31;7.90;99.90
8475;DHT22;4274;52.012;8.448;2023-04-08T07:50:57;7.90;99.90
8475;DHT22;4274;52.012;8.448;2023-04-08T07:53:22;8.00;99.90
8475;DHT22;4274;52.012;8.448;2023-04-08T07:55:52;7.90;99.90
8475;DHT22;4274;52.012;8.448;2023-04-08T07:58:17;7.90;99.90
8475;DHT22;4274;52.012;8.448;2023-04-08T08:00:43;8.00;99.90
8475;DHT22;4274;52.012;8.448;2023-04-08T08:03:08;8.10;99.90
8475;DHT22;4274;52.012;8.448;2023-04-08T08:05:37;8.20;99.90
8475;DHT22;4274;52.012;8.448;2023-04-08T08:08:03;8.20;99.90
8475;DHT22;4274;52.012;8.448;2023-04-08T08:10:28;8.00;99.90
8475;DHT22;4274;52.012;8.448;2023-04-08T08:12:54;8.00;99.90
8475;DHT22;4274;52.012;8.448;2023-04-08T08:15:20;8.00;99.90
8475;DHT22;4274;52.012;8.448;2023-04-08T08:17:46;8.10;99.90
8475;DHT22;4274;52.012;8.448;2023-04-08T08:20:11;8.20;99.90
8475;DHT22;4274;52.012;8.448;2023-04-08T08:22:37;8.20;99.90
8475;DHT22;4274;52.012;8.448;2023-04-08T08:25:04;8.30;99.90
8475;DHT22;4274;52.012;8.448;2023-04-08T08:27:30;8.30;99.90
8475;DHT22;4274;52.012;8.448;2023-04-08T08:29:55;8.40;99.90
8475;DHT22;4274;52.012;8.448;2023-04-08T08:32:21;8.50;99.90
8475;DHT22;4274;52.012;8.448;2023-04-08T08:34:47;8.60;99.90
8475;DHT22;4274;52.012;8.448;2023-04-08T08:37:12;8.50;99.90
8475;DHT22;4274;52.012;8.448;2023-04-08T08:39:38;8.60;99.90
8475;DHT22;4274;52.012;8.448;2023-04-08T08:42:03;8.60;99.90
8475;DHT22;4274;52.012;8.448;2023-04-08T08:44:29;8.70;99.90
8475;DHT22;4274;52.012;8.448;2023-04-08T08:46:55;8.70;99.90
8475;DHT22;4274;52.012;8.448;2023-04-08T08:49:21;8.80;99.90
8475;DHT22;4274;52.012;8.448;2023-04-08T08:51:47;8.90;99.90
8475;DHT22;4274;52.012;8.448;2023-04-08T08:54:14;9.00;99.90
8475;DHT22;4274;52.012;8.448;2023-04-08T08:56:39;9.10;99.90
8475;DHT22;4274;52.012;8.448;2023-04-08T08:59:10;9.10;99.90
8475;DHT22;4274;52.012;8.448;2023-04-08T09:01:37;9.30;99.90
8475;DHT22;4274;52.012;8.448;2023-04-08T09:04:17;9.50;99.90
8475;DHT22;4274;52.012;8.448;2023-04-08T09:06:48;9.70;99.90
8475;DHT22;4274;52.012;8.448;2023-04-08T09:09:18;9.90;99.90
8475;DHT22;4274;52.012;8.448;2023-04-08T09:11:45;10.20;99.90
8475;DHT22;4274;52.012;8.448;2023-04-08T09:14:24;10.30;99.90
8475;DHT22;4274;52.012;8.448;2023-04-08T09:16:51;10.60;99.90
8475;DHT22;4274;52.012;8.448;2023-04-08T09:19:17;10.70;99.90
8475;DHT22;4274;52.012;8.448;2023-04-08T09:21:42;10.60;99.90
8475;DHT22;4274;52.012;8.448;2023-04-08T09:24:09;10.70;99.90
8475;DHT22;4274;52.012;8.448;2023-04-08T09:26:51;10.80;99.90
8475;DHT22;4274;52.012;8.448;2023-04-08T09:29:16;10.90;99.90
8475;DHT22;4274;52.012;8.448;2023-04-08T09:31:42;11.10;99.90
8475;DHT22;4274;52.012;8.448;2023-04-08T09:34:11;11.10;99.90
8475;DHT22;4274;52.012;8.448;2023-04-08T09:36:37;11.10;99.90
8475;DHT22;4274;52.012;8.448;2023-04-08T09:39:04;10.90;99.90
8475;DHT22;4274;52.012;8.448;2023-04-08T09:41:33;10.80;99.90
8475;DHT22;4274;52.012;8.448;2023-04-08T09:43:59;10.90;99.90
8475;DHT22;4274;52.012;8.448;2023-04-08T09:52:05;10.90;99.90
8475;DHT22;4274;52.012;8.448;2023-04-08T09:57:09;10.80;99.90
8475;DHT22;4274;52.012;8.448;2023-04-08T09:59:51;10.90;99.90
8475;DHT22;4274;52.012;8.448;2023-04-08T10:02:24;11.10;99.90
8475;DHT22;4274;52.012;8.448;2023-04-08T10:04:54;11.20;99.90
8475;DHT22;4274;52.012;8.448;2023-04-08T10:07:20;11.30;99.90
8475;DHT22;4274;52.012;8.448;2023-04-08T10:09:46;11.50;99.90
8475;DHT22;4274;52.012;8.448;2023-04-08T10:12:11;11.80;99.90
8475;DHT22;4274;52.012;8.448;2023-04-08T10:14:38;12.00;99.90
8475;DHT22;4274;52.012;8.448;2023-04-08T10:17:26;12.00;99.90
8475;DHT22;4274;52.012;8.448;2023-04-08T10:19:52;11.70;99.90
8475;DHT22;4274;52.012;8.448;2023-04-08T10:27:43;11.50;99.90
8475;DHT22;4274;52.012;8.448;2023-04-08T10:35:28;11.30;99.90
8475;DHT22;4274;52.012;8.448;2023-04-08T10:37:55;11.20;99.90
8475;DHT22;4274;52.012;8.448;2023-04-08T10:40:20;11.20;99.90
8475;DHT22;4274;52.012;8.448;2023-04-08T10:42:46;11.10;99.90
8475;DHT22;4274;52.012;8.448;2023-04-08T10:45:16;11.10;99.90
8475;DHT22;4274;52.012;8.448;2023-04-08T10:47:42;11.00;99.90
8475;DHT22;4274;52.012;8.448;2023-04-08T10:50:15;11.00;99.90
8475;DHT22;4274;52.012;8.448;2023-04-08T10:52:52;11.00;99.90
8475;DHT22;4274;52.012;8.448;2023-04-08T10:55:25;11.00;99.90
8475;DHT22;4274;52.012;8.448;2023-04-08T10:57:51;10.80;99.90
8475;DHT22;4274;52.012;8.448;2023-04-08T11:00:18;10.70;99.90
8475;DHT22;4274;52.012;8.448;2023-04-08T11:02:44;10.50;99.90
8475;DHT22;4274;52.012;8.448;2023-04-08T11:05:09;10.40;99.90
8475;DHT22;4274;52.012;8.448;2023-04-08T11:07:40;10.30;99.90
8475;DHT22;4274;52.012;8.448;2023-04-08T11:10:09;10.50;99.90
8475;DHT22;4274;52.012;8.448;2023-04-08T11:12:35;10.60;99.90
8475;DHT22;4274;52.012;8.448;2023-04-08T11:15:03;10.80;99.90
8475;DHT22;4274;52.012;8.448;2023-04-08T11:17:29;10.90;99.90
8475;DHT22;4274;52.012;8.448;2023-04-08T11:19:55;10.90;99.90
8475;DHT22;4274;52.012;8.448;2023-04-08T11:22:27;10.90;99.90
8475;DHT22;4274;52.012;8.448;2023-04-08T11:24:52;11.00;99.90
8475;DHT22;4274;52.012;8.448;2023-04-08T11:27:18;11.10;99.90
8475;DHT22;4274;52.012;8.448;2023-04-08T11:29:45;11.30;99.90
8475;DHT22;4274;52.012;8.448;2023-04-08T11:32:11;11.20;99.90
8475;DHT22;4274;52.012;8.448;2023-04-08T11:34:38;11.10;99.90
8475;DHT22;4274;52.012;8.448;2023-04-08T11:37:04;10.80;99.90
8475;DHT22;4274;52.012;8.448;2023-04-08T11:39:31;10.60;99.90
8475;DHT22;4274;52.012;8.448;2023-04-08T11:41:56;10.50;99.90
8475;DHT22;4274;52.012;8.448;2023-04-08T11:44:31;10.40;99.90
8475;DHT22;4274;52.012;8.448;2023-04-08T11:46:57;10.30;99.90
8475;DHT22;4274;52.012;8.448;2023-04-08T11:49:23;10.30;99.90
8475;DHT22;4274;52.012;8.448;2023-04-08T11:51:57;10.30;99.90
8475;DHT22;4274;52.012;8.448;2023-04-08T11:54:30;10.20;99.90
8475;DHT22;4274;52.012;8.448;2023-04-08T11:56:57;10.20;99.90
8475;DHT22;4274;52.012;8.448;2023-04-08T11:59:24;10.20;99.90
8475;DHT22;4274;52.012;8.448;2023-04-08T12:01:53;10.20;99.90
8475;DHT22;4274;52.012;8.448;2023-04-08T12:04:18;10.10;99.90
8475;DHT22;4274;52.012;8.448;2023-04-08T12:06:44;10.10;99.90
8475;DHT22;4274;52.012;8.448;2023-04-08T12:09:12;10.20;99.90
8475;DHT22;4274;52.012;8.448;2023-04-08T12:11:37;10.30;99.90
8475;DHT22;4274;52.012;8.448;2023-04-08T12:14:04;10.50;99.90
8475;DHT22;4274;52.012;8.448;2023-04-08T12:16:29;10.50;99.90
8475;DHT22;4274;52.012;8.448;2023-04-08T12:18:55;10.40;99.90
8475;DHT22;4274;52.012;8.448;2023-04-08T12:21:21;10.30;99.90
8475;DHT22;4274;52.012;8.448;2023-04-08T12:23:46;10.30;99.90
8475;DHT22;4274;52.012;8.448;2023-04-08T12:26:12;10.10;99.90
8475;DHT22;4274;52.012;8.448;2023-04-08T12:28:39;9.90;99.90
8475;DHT22;4274;52.012;8.448;2023-04-08T12:31:05;9.80;99.90
8475;DHT22;4274;52.012;8.448;2023-04-08T12:33:30;10.00;99.90
8475;DHT22;4274;52.012;8.448;2023-04-08T12:35:56;10.20;99.90
8475;DHT22;4274;52.012;8.448;2023-04-08T12:38:23;10.40;99.90
8475;DHT22;4274;52.012;8.448;2023-04-08T12:40:50;10.60;99.90
8475;DHT22;4274;52.012;8.448;2023-04-08T12:43:16;10.70;99.90
8475;DHT22;4274;52.012;8.448;2023-04-08T12:45:42;10.80;99.90
8475;DHT22;4274;52.012;8.448;2023-04-08T12:48:07;10.80;99.90
8475;DHT22;4274;52.012;8.448;2023-04-08T12:50:33;10.90;99.90
8475;DHT22;4274;52.012;8.448;2023-04-08T12:52:59;10.90;99.90
8475;DHT22;4274;52.012;8.448;2023-04-08T12:55:25;11.00;99.90
8475;DHT22;4274;52.012;8.448;2023-04-08T12:57:51;11.00;99.90
8475;DHT22;4274;52.012;8.448;2023-04-08T13:00:17;11.00;99.90
8475;DHT22;4274;52.012;8.448;2023-04-08T13:02:44;10.90;99.90
8475;DHT22;4274;52.012;8.448;2023-04-08T13:05:09;10.80;99.90
8475;DHT22;4274;52.012;8.448;2023-04-08T13:07:35;10.70;99.90
8475;DHT22;4274;52.012;8.448;2023-04-08T13:10:01;10.70;99.90
8475;DHT22;4274;52.012;8.448;2023-04-08T13:12:31;10.60;99.90
8475;DHT22;4274;52.012;8.448;2023-04-08T13:14:57;10.40;99.90
8475;DHT22;4274;52.012;8.448;2023-04-08T13:17:24;10.40;99.90
8475;DHT22;4274;52.012;8.448;2023-04-08T13:19:49;10.40;99.90
8475;DHT22;4274;52.012;8.448;2023-04-08T13:22:15;10.50;99.90
8475;DHT22;4274;52.012;8.448;2023-04-08T13:24:42;10.60;99.90
8475;DHT22;4274;52.012;8.448;2023-04-08T13:27:08;10.60;99.90
8475;DHT22;4274;52.012;8.448;2023-04-08T13:29:33;10.60;99.90
8475;DHT22;4274;52.012;8.448;2023-04-08T13:31:59;10.50;99.90
8475;DHT22;4274;52.012;8.448;2023-04-08T13:34:26;10.50;99.90
8475;DHT22;4274;52.012;8.448;2023-04-08T13:36:51;10.50;99.90
8475;DHT22;4274;52.012;8.448;2023-04-08T13:39:17;10.40;99.90
8475;DHT22;4274;52.012;8.448;2023-04-08T13:41:44;10.30;99.90
8475;DHT22;4274;52.012;8.448;2023-04-08T13:44:09;10.30;99.90
8475;DHT22;4274;52.012;8.448;2023-04-08T13:46:35;10.20;99.90
8475;DHT22;4274;52.012;8.448;2023-04-08T13:49:01;10.20;99.90
8475;DHT22;4274;52.012;8.448;2023-04-08T13:51:27;10.10;99.90
8475;DHT22;4274;52.012;8.448;2023-04-08T13:53:56;10.00;99.90
8475;DHT22;4274;52.012;8.448;2023-04-08T13:56:23;10.00;99.90
8475;DHT22;4274;52.012;8.448;2023-04-08T13:58:49;10.00;99.90
8475;DHT22;4274;52.012;8.448;2023-04-08T14:01:14;10.00;99.90
8475;DHT22;4274;52.012;8.448;2023-04-08T14:03:40;10.10;99.90
8475;DHT22;4274;52.012;8.448;2023-04-08T14:06:06;10.10;99.90
8475;DHT22;4274;52.012;8.448;2023-04-08T14:08:34;10.00;99.90
8475;DHT22;4274;52.012;8.448;2023-04-08T14:11:00;9.90;99.90
8475;DHT22;4274;52.012;8.448;2023-04-08T14:13:26;9.90;99.90
8475;DHT22;4274;52.012;8.448;2023-04-08T14:15:51;9.80;99.90
8475;DHT22;4274;52.012;8.448;2023-04-08T14:18:19;9.80;99.90
8475;DHT22;4274;52.012;8.448;2023-04-08T14:20:45;9.80;99.90
8475;DHT22;4274;52.012;8.448;2023-04-08T14:23:10;9.80;99.90
8475;DHT22;4274;52.012;8.448;2023-04-08T14:25:38;9.90;99.90
8475;DHT22;4274;52.012;8.448;2023-04-08T14:28:03;10.00;99.90
8475;DHT22;4274;52.012;8.448;2023-04-08T14:30:30;10.20;99.90
8475;DHT22;4274;52.012;8.448;2023-04-08T14:32:56;10.30;99.90
8475;DHT22;4274;52.012;8.448;2023-04-08T14:35:23;10.50;99.90
8475;DHT22;4274;52.012;8.448;2023-04-08T14:37:49;10.50;99.90
8475;DHT22;4274;52.012;8.448;2023-04-08T14:40:15;10.60;99.90
8475;DHT22;4274;52.012;8.448;2023-04-08T14:42:40;10.70;99.90
8475;DHT22;4274;52.012;8.448;2023-04-08T14:45:07;10.70;99.90
8475;DHT22;4274;52.012;8.448;2023-04-08T14:47:33;10.80;99.90
8475;DHT22;4274;52.012;8.448;2023-04-08T14:49:58;10.80;99.90
8475;DHT22;4274;52.012;8.448;2023-04-08T14:52:24;10.90;99.90
8475;DHT22;4274;52.012;8.448;2023-04-08T14:54:50;11.00;99.90
8475;DHT22;4274;52.012;8.448;2023-04-08T14:57:16;11.10;99.90
8475;DHT22;4274;52.012;8.448;2023-04-08T14:59:42;11.10;99.90
8475;DHT22;4274;52.012;8.448;2023-04-08T15:02:08;11.20;99.90
8475;DHT22;4274;52.012;8.448;2023-04-08T15:04:33;11.20;99.90
8475;DHT22;4274;52.012;8.448;2023-04-08T15:06:59;11.10;99.90
8475;DHT22;4274;52.012;8.448;2023-04-08T15:09:26;11.10;99.90
8475;DHT22;4274;52.012;8.448;2023-04-08T15:11:52;10.90;99.90
8475;DHT22;4274;52.012;8.448;2023-04-08T15:14:18;10.80;99.90
8475;DHT22;4274;52.012;8.448;2023-04-08T15:16:43;10.70;99.90
8475;DHT22;4274;52.012;8.448;2023-04-08T15:19:09;10.50;99.90
8475;DHT22;4274;52.012;8.448;2023-04-08T15:21:34;10.40;99.90
8475;DHT22;4274;52.012;8.448;2023-04-08T15:24:01;10.30;99.90
8475;DHT22;4274;52.012;8.448;2023-04-08T15:26:26;10.40;99.90
8475;DHT22;4274;52.012;8.448;2023-04-08T15:28:53;10.40;99.90
8475;DHT22;4274;52.012;8.448;2023-04-08T15:31:21;10.30;99.90
8475;DHT22;4274;52.012;8.448;2023-04-08T15:33:47;10.20;99.90
8475;DHT22;4274;52.012;8.448;2023-04-08T15:36:12;10.10;99.90
8475;DHT22;4274;52.012;8.448;2023-04-08T15:38:48;10.20;99.90
8475;DHT22;4274;52.012;8.448;2023-04-08T15:41:17;10.30;99.90
8475;DHT22;4274;52.012;8.448;2023-04-08T15:43:44;10.30;99.90
8475;DHT22;4274;52.012;8.448;2023-04-08T15:46:09;10.30;99.90
8475;DHT22;4274;52.012;8.448;2023-04-08T15:48:35;10.20;99.90
8475;DHT22;4274;52.012;8.448;2023-04-08T15:51:07;10.20;99.90
8475;DHT22;4274;52.012;8.448;2023-04-08T15:53:33;10.20;99.90
8475;DHT22;4274;52.012;8.448;2023-04-08T15:55:59;10.20;99.90
8475;DHT22;4274;52.012;8.448;2023-04-08T15:58:24;10.20;99.90
8475;DHT22;4274;52.012;8.448;2023-04-08T16:00:50;10.30;99.90
8475;DHT22;4274;52.012;8.448;2023-04-08T16:03:17;10.30;99.90
8475;DHT22;4274;52.012;8.448;2023-04-08T16:05:42;10.30;99.90
8475;DHT22;4274;52.012;8.448;2023-04-08T16:08:08;10.10;99.90
8475;DHT22;4274;52.012;8.448;2023-04-08T16:10:34;10.00;99.90
8475;DHT22;4274;52.012;8.448;2023-04-08T16:13:00;10.00;99.90
8475;DHT22;4274;52.012;8.448;2023-04-08T16:15:25;9.90;99.90
8475;DHT22;4274;52.012;8.448;2023-04-08T16:17:51;9.80;99.90
8475;DHT22;4274;52.012;8.448;2023-04-08T16:20:18;9.70;99.90
8475;DHT22;4274;52.012;8.448;2023-04-08T16:22:43;9.60;99.90
8475;DHT22;4274;52.012;8.448;2023-04-08T16:25:09;9.60;99.90
8475;DHT22;4274;52.012;8.448;2023-04-08T16:27:35;9.60;99.90
8475;DHT22;4274;52.012;8.448;2023-04-08T16:30:03;9.40;99.90
8475;DHT22;4274;52.012;8.448;2023-04-08T16:32:30;9.40;99.90